August 14, 2022

Time Code Weather Temp. Visibility Ceiling Wind METAR/SPECI
06:20
V
17 °C 10 km+ - 070° 070° 8 kt METAR EGGP 140520Z 07008KT CAVOK 17/14 Q1009
05:50
V
17 °C 10 km+ - 060° 060° 7 kt METAR EGGP 140450Z 06007KT CAVOK 17/14 Q1009
05:20
V
17 °C 10 km+ - 060° 060° 8 kt METAR EGGP 140420Z AUTO 06008KT 9999 NCD 17/14 Q1010
04:50
V
17 °C 10 km+ - 060° 060° 6 kt METAR EGGP 140350Z AUTO 06006KT 9999 NCD 17/14 Q1010
04:20
V
17 °C 10 km+ - 060° 060° 7 kt METAR EGGP 140320Z AUTO 06007KT 9999 NCD 17/14 Q1010
03:50
V
18 °C 10 km+ - 060° 060° 7 kt METAR EGGP 140250Z AUTO 06007KT 9999 NCD 18/14 Q1010
03:20
V
19 °C 10 km+ - 050° 050° 7 kt METAR EGGP 140220Z AUTO 05007KT 9999 NCD 19/14 Q1010
02:50
V
19 °C 10 km+ - 060° 060° 4 kt METAR EGGP 140150Z AUTO 06004KT 9999 NCD 19/14 Q1011
02:20
V
20 °C 10 km+ - 060° 060° 6 kt METAR EGGP 140120Z AUTO 06006KT 9999 ///////// 20/14 Q1011
01:50
V
21 °C 10 km+ - 070° 070° 6 kt METAR EGGP 140050Z 07006KT CAVOK 21/15 Q1011
01:20
V
21 °C 10 km+ - 070° 070° 6 kt METAR EGGP 140020Z 07006KT CAVOK 21/14 Q1011
00:50
V
22 °C 10 km+ - 050° 050° 7 kt METAR EGGP 132350Z 05007KT CAVOK 22/14 Q1011
00:20
V
22 °C 10 km+ - 050° 050° 7 kt METAR EGGP 132320Z 05007KT CAVOK 22/14 Q1012

August 13, 2022

Time Code Weather Temp. Visibility Ceiling Wind METAR/SPECI
23:50
V
22 °C 10 km+ - 040° 040° 9 kt METAR EGGP 132250Z 04009KT CAVOK 22/14 Q1012
23:20
V
23 °C 10 km+ - 060° 060° 7 kt METAR EGGP 132220Z 06007KT CAVOK 23/14 Q1012
22:50
V
24 °C 10 km+ - 060° 060° 9 kt METAR EGGP 132150Z 06009KT CAVOK 24/14 Q1012
22:20
V
24 °C 10 km+ - 060° 060° 10 kt METAR EGGP 132120Z 06010KT CAVOK 24/14 Q1012
21:50
V
24 °C 10 km+ - 060° 060° 11 kt METAR EGGP 132050Z 06011KT CAVOK 24/14 Q1012
21:20
V
25 °C 10 km+ - 060° 060° 10 kt METAR EGGP 132020Z 06010KT CAVOK 25/14 Q1012
20:50
V
27 °C 10 km+ - 060° 060° 6 kt METAR EGGP 131950Z 06006KT CAVOK 27/12 Q1012
20:20
V
28 °C 10 km+ - 060° 060° 5 kt METAR EGGP 131920Z 06005KT CAVOK 28/13 Q1012
19:50
V
28 °C 10 km+ - 070° 070° 5 kt METAR EGGP 131850Z 07005KT CAVOK 28/12 Q1012
19:20
V
29 °C 10 km+ - 080° 080° 5 kt METAR EGGP 131820Z 08005KT 040V120 CAVOK 29/14 Q1012
18:50
V
29 °C 10 km+ - 090° 090° 4 kt METAR EGGP 131750Z 09004KT CAVOK 29/13 Q1012
18:20
V
30 °C 10 km+ - 070° 070° 5 kt METAR EGGP 131720Z 07005KT CAVOK 30/12 Q1012
17:50
V
30 °C 10 km+ - 060° 060° 7 kt METAR EGGP 131650Z 06007KT 030V100 CAVOK 30/12 Q1013
17:20
V
31 °C 10 km+ - 090° 090° 6 kt METAR EGGP 131620Z 09006KT CAVOK 31/12 Q1013
16:50
V
30 °C 10 km+ - 100° 100° 6 kt METAR EGGP 131550Z 10006KT 060V130 CAVOK 30/11 Q1013
16:20
V
31 °C 10 km+ - 080° 080° 7 kt METAR EGGP 131520Z 08007KT CAVOK 31/12 Q1013
15:50
V
30 °C 10 km+ - 110° 110° 6 kt METAR EGGP 131450Z 11006KT 040V160 CAVOK 30/11 Q1014
15:20
V
30 °C 10 km+ - 100° 100° 6 kt METAR EGGP 131420Z 10006KT 050V150 CAVOK 30/12 Q1014
14:50
V
30 °C 10 km+ - 090° 090° 7 kt METAR EGGP 131350Z 09007KT 050V130 CAVOK 30/11 Q1014
14:20
V
30 °C 10 km+ - 090° 090° 8 kt METAR EGGP 131320Z 09008KT 050V140 CAVOK 30/12 Q1015
13:50
V
30 °C 10 km+ - 090° 090° 8 kt METAR EGGP 131250Z 09008KT 060V140 CAVOK 30/12 Q1015
13:20
V
29 °C 10 km+ - 110° 110° 5 kt METAR EGGP 131220Z 11005KT 060V170 CAVOK 29/13 Q1015
12:50
V
28 °C 10 km+ - 110° 110° 6 kt METAR EGGP 131150Z 11006KT 070V170 CAVOK 28/14 Q1015
12:20
V
28 °C 10 km+ - 110° 110° 6 kt METAR EGGP 131120Z 11006KT 070V170 CAVOK 28/14 Q1016
11:50
V
27 °C 10 km+ - 100° 100° 7 kt METAR EGGP 131050Z 10007KT 070V140 CAVOK 27/13 Q1016
11:20
V
27 °C 10 km+ - 110° 110° 6 kt METAR EGGP 131020Z 11006KT 080V170 CAVOK 27/14 Q1016
10:50
V
25 °C 10 km+ - 090° 090° 4 kt METAR EGGP 130950Z 09004KT 020V180 CAVOK 25/14 Q1016
10:20
V
24 °C 10 km+ - 150° 150° 4 kt METAR EGGP 130920Z 15004KT 100V240 CAVOK 24/14 Q1017
09:50
V
23 °C 10 km+ - 090° 090° 4 kt METAR EGGP 130850Z 09004KT 060V160 CAVOK 23/14 Q1017
09:20
V
23 °C 10 km+ - 100° 100° 5 kt METAR EGGP 130820Z 10005KT 070V130 CAVOK 23/13 Q1017
08:50
V
22 °C 10 km+ - 090° 090° 6 kt METAR EGGP 130750Z 09006KT 070V130 CAVOK 22/13 Q1017
08:20
V
20 °C 10 km+ - 070° 070° 8 kt METAR EGGP 130720Z 07008KT CAVOK 20/12 Q1017
07:50
V
19 °C 10 km+ - 080° 080° 7 kt METAR EGGP 130650Z 08007KT CAVOK 19/12 Q1017
07:20
V
19 °C 10 km+ - 070° 070° 8 kt METAR EGGP 130620Z 07008KT CAVOK 19/13 Q1017
06:50
V
17 °C 10 km+ - 070° 070° 6 kt METAR EGGP 130550Z 07006KT CAVOK 17/13 Q1017
06:20
V
17 °C 10 km+ - 070° 070° 7 kt METAR EGGP 130520Z 07007KT CAVOK 17/12 Q1017
05:50
V
16 °C 10 km+ - 070° 070° 6 kt METAR EGGP 130450Z 07006KT CAVOK 16/12 Q1017
05:20
V
16 °C 10 km+ - 070° 070° 7 kt METAR EGGP 130420Z 07007KT CAVOK 16/12 Q1017
04:50
V
16 °C 10 km+ - 070° 070° 7 kt METAR EGGP 130350Z AUTO 07007KT 9999 NCD 16/13 Q1017
04:20
V
17 °C 10 km+ - 080° 080° 7 kt METAR EGGP 130320Z AUTO 08007KT 9999 ///////// 17/12 Q1017
03:50
V
17 °C 10 km+ - 080° 080° 6 kt METAR EGGP 130250Z AUTO 08006KT 9999 NCD 17/12 Q1017
03:20
V
18 °C 10 km+ - 070° 070° 6 kt METAR EGGP 130220Z AUTO 07006KT 9999 ///////// 18/12 Q1017
02:50
V
17 °C 10 km+ - 080° 080° 6 kt METAR EGGP 130150Z 08006KT CAVOK 17/12 Q1017
02:20
V
18 °C 10 km+ - 070° 070° 5 kt METAR EGGP 130120Z 07005KT CAVOK 18/12 Q1017
01:50
V
19 °C 10 km+ - 070° 070° 6 kt METAR EGGP 130050Z 07006KT 9999 NCD 19/13 Q1018
01:20
V
20 °C 10 km+ - 080° 080° 6 kt METAR EGGP 130020Z 08006KT CAVOK 20/14 Q1018
00:50
V
20 °C 10 km+ - 070° 070° 7 kt METAR EGGP 122350Z 07007KT CAVOK 20/14 Q1018
00:20
V
20 °C 10 km+ - 080° 080° 6 kt METAR EGGP 122320Z 08006KT CAVOK 20/14 Q1018

August 12, 2022

Time Code Weather Temp. Visibility Ceiling Wind METAR/SPECI
23:50
V
21 °C 10 km+ - 080° 080° 5 kt METAR EGGP 122250Z 08005KT CAVOK 21/13 Q1018
23:20
V
22 °C 10 km+ - 070° 070° 6 kt METAR EGGP 122220Z 07006KT CAVOK 22/14 Q1018
22:50
V
23 °C 10 km+ - 060° 060° 9 kt METAR EGGP 122150Z 06009KT CAVOK 23/13 Q1018
22:20
V
23 °C 10 km+ - 070° 070° 10 kt METAR EGGP 122120Z 07010KT CAVOK 23/13 Q1018
21:50
V
24 °C 10 km+ - 070° 070° 10 kt METAR EGGP 122050Z 07010KT CAVOK 24/14 Q1017
21:20
V
25 °C 10 km+ - 070° 070° 10 kt METAR EGGP 122020Z 07010KT CAVOK 25/13 Q1017
20:50
V
28 °C 10 km+ - 040° 040° 5 kt METAR EGGP 121950Z 04005KT CAVOK 28/11 Q1017
20:20
V
28 °C 10 km+ - 060° 060° 5 kt METAR EGGP 121920Z 06005KT CAVOK 28/11 Q1017
19:50
V
28 °C 10 km+ - 070° 070° 5 kt METAR EGGP 121850Z 07005KT CAVOK 28/11 Q1017
19:20
V
29 °C 10 km+ - 080° 080° 6 kt METAR EGGP 121820Z 08006KT CAVOK 29/12 Q1017
18:50
V
30 °C 10 km+ - 100° 100° 4 kt METAR EGGP 121750Z 10004KT 070V140 CAVOK 30/12 Q1017
18:20
V
30 °C 10 km+ - 120° 120° 4 kt METAR EGGP 121720Z 12004KT 070V170 CAVOK 30/10 Q1017
17:50
V
31 °C 10 km+ - 130° 130° 3 kt METAR EGGP 121650Z 13003KT 060V200 CAVOK 31/11 Q1017
17:20
V
30 °C 10 km+ - 110° 110° 5 kt METAR EGGP 121620Z 11005KT 070V180 CAVOK 30/10 Q1017
16:50
V
31 °C 10 km+ - 100° 100° 4 kt METAR EGGP 121550Z 10004KT 040V170 CAVOK 31/11 Q1018
16:20
V
30 °C 10 km+ - 100° 100° 5 kt METAR EGGP 121520Z 10005KT 040V170 CAVOK 30/10 Q1018
15:50
V
30 °C 10 km+ - 120° 120° 5 kt METAR EGGP 121450Z 12005KT 080V180 CAVOK 30/10 Q1018
15:20
V
30 °C 10 km+ - 140° 140° 5 kt METAR EGGP 121420Z 14005KT 060V200 CAVOK 30/09 Q1018
14:50
V
30 °C 10 km+ - Var Var 6 kt METAR EGGP 121350Z VRB06KT CAVOK 30/10 Q1019
14:20
V
30 °C 10 km+ - 140° 140° 5 kt METAR EGGP 121320Z 14005KT 080V200 CAVOK 30/11 Q1019
13:50
V
29 °C 10 km+ - 110° 110° 7 kt METAR EGGP 121250Z 11007KT 080V150 CAVOK 29/10 Q1019
13:20
V
29 °C 10 km+ - 120° 120° 5 kt METAR EGGP 121220Z 12005KT 070V190 CAVOK 29/11 Q1019
12:50
V
28 °C 10 km+ - Var Var 5 kt METAR EGGP 121150Z VRB05KT CAVOK 28/11 Q1019
12:20
V
28 °C 10 km+ - 120° 120° 5 kt METAR EGGP 121120Z 12005KT 070V180 CAVOK 28/13 Q1020
11:50
V
27 °C 10 km+ - 130° 130° 4 kt METAR EGGP 121050Z 13004KT 060V190 CAVOK 27/13 Q1020
11:20
V
26 °C 10 km+ - Var Var 4 kt METAR EGGP 121020Z VRB04KT CAVOK 26/14 Q1020
10:50
V
26 °C 10 km+ - 140° 140° 3 kt METAR EGGP 120950Z 14003KT 060V210 CAVOK 26/15 Q1021
10:20
V
24 °C 10 km+ - 150° 150° 3 kt METAR EGGP 120920Z 15003KT 070V200 CAVOK 24/15 Q1021
09:50
V
23 °C 10 km+ - 130° 130° 3 kt METAR EGGP 120850Z 13003KT 070V220 CAVOK 23/14 Q1021
09:20
V
22 °C 10 km+ - 140° 140° 3 kt METAR EGGP 120820Z 14003KT 080V180 CAVOK 22/14 Q1021
08:50
V
21 °C 10 km+ - Var Var 3 kt METAR EGGP 120750Z VRB03KT CAVOK 21/15 Q1021
08:20
V
19 °C 10 km+ - Var Var 2 kt METAR EGGP 120720Z VRB02KT CAVOK 19/15 Q1021
07:50
V
18 °C 10 km+ - Var Var 1 kt METAR EGGP 120650Z VRB01KT CAVOK 18/16 Q1021
07:20
V
17 °C 10 km+ - 150° 150° 3 kt METAR EGGP 120620Z 15003KT CAVOK 17/16 Q1021
06:50
V
17 °C 10 km+ - 120° 120° 4 kt METAR EGGP 120550Z 12004KT CAVOK 17/16 Q1021
06:20
V
15 °C 10 km+ - 110° 110° 5 kt METAR EGGP 120520Z 11005KT CAVOK 15/14 Q1020
05:50
V
15 °C 10 km+ - 100° 100° 4 kt METAR EGGP 120450Z 10004KT CAVOK 15/13 Q1020
05:20
V
16 °C 10 km+ - 080° 080° 4 kt METAR EGGP 120420Z 08004KT CAVOK 16/15 Q1020
04:50
V
16 °C 10 km+ - 100° 100° 3 kt METAR EGGP 120350Z AUTO 10003KT 9999 NCD 16/14 Q1020
04:20
V
17 °C 10 km+ - 090° 090° 3 kt METAR EGGP 120320Z AUTO 09003KT 9999 NCD 17/15 Q1021
03:50
V
17 °C 10 km+ - 070° 070° 2 kt METAR EGGP 120250Z AUTO 07002KT 9999 NCD 17/16 Q1021
Older data

We and third parties follow your internet behavior on our website with cookies. If you continue, we assume you agree with our cookie policy. Learn more